createdAt,value
2018-11-26T00:01:33.365Z,947.29
2018-11-26T00:03:59.702Z,947.32
2018-11-26T00:06:26.022Z,947.28
2018-11-26T00:08:52.443Z,947.26
2018-11-26T00:11:18.772Z,947.22
2018-11-26T00:13:45.203Z,947.14
2018-11-26T00:16:11.569Z,947.12
2018-11-26T00:18:38.003Z,947.15
2018-11-26T00:21:04.390Z,947.19
2018-11-26T00:23:30.704Z,947.08
2018-11-26T00:25:57.072Z,946.87
2018-11-26T00:28:23.448Z,946.98
2018-11-26T00:30:49.745Z,946.82
2018-11-26T00:33:16.080Z,947.12
2018-11-26T00:35:42.401Z,947.04
2018-11-26T00:38:08.708Z,947.25
2018-11-26T00:40:35.057Z,946.84
2018-11-26T00:43:01.359Z,946.89
2018-11-26T00:45:27.704Z,947.12
2018-11-26T00:47:54.040Z,946.54
2018-11-26T00:50:20.347Z,946.95
2018-11-26T00:52:46.687Z,946.78
2018-11-26T00:55:13.096Z,946.55
2018-11-26T00:57:39.407Z,946.26
2018-11-26T01:00:07.236Z,946.48
2018-11-26T01:02:33.556Z,946.17
2018-11-26T01:04:59.919Z,946.29
2018-11-26T01:07:26.254Z,946.01
2018-11-26T01:09:52.538Z,945.74
2018-11-26T01:12:18.855Z,945.93
2018-11-26T01:14:45.154Z,945.95
2018-11-26T01:17:11.501Z,946.21
2018-11-26T01:19:37.832Z,945.83
2018-11-26T01:22:04.163Z,945.80
2018-11-26T01:24:30.494Z,945.99
2018-11-26T01:26:56.822Z,945.86
2018-11-26T01:29:23.168Z,945.82
2018-11-26T01:31:49.468Z,945.97
2018-11-26T01:34:15.784Z,945.88
2018-11-26T01:36:42.128Z,945.81
2018-11-26T01:39:08.510Z,945.48
2018-11-26T01:41:34.823Z,945.21
2018-11-26T01:44:01.138Z,944.93
2018-11-26T01:46:27.468Z,945.38
2018-11-26T01:48:53.803Z,944.96
2018-11-26T01:51:20.162Z,944.77
2018-11-26T01:53:46.469Z,944.50
2018-11-26T01:56:12.774Z,944.48
2018-11-26T01:58:39.134Z,944.71
2018-11-26T02:01:05.439Z,944.76
2018-11-26T02:03:31.726Z,944.66
2018-11-26T02:05:58.041Z,944.71
2018-11-26T02:08:24.336Z,944.74
2018-11-26T02:10:50.681Z,944.47
2018-11-26T02:13:16.978Z,944.62
2018-11-26T02:15:43.292Z,944.57
2018-11-26T02:18:09.600Z,944.44
2018-11-26T02:20:35.922Z,944.39
2018-11-26T02:23:02.276Z,944.36
2018-11-26T02:25:28.586Z,944.38
2018-11-26T02:27:54.925Z,944.29
2018-11-26T02:30:21.275Z,944.48
2018-11-26T02:32:47.605Z,944.22
2018-11-26T02:35:13.963Z,944.35
2018-11-26T02:37:40.284Z,944.43
2018-11-26T02:40:06.622Z,944.45
2018-11-26T02:42:32.925Z,944.32
2018-11-26T02:44:59.302Z,944.50
2018-11-26T02:47:25.595Z,944.25
2018-11-26T02:49:51.896Z,944.39
2018-11-26T02:52:18.200Z,944.49
2018-11-26T02:54:44.522Z,944.29
2018-11-26T02:57:10.842Z,944.68
2018-11-26T02:59:37.213Z,944.57
2018-11-26T03:02:03.512Z,944.45
2018-11-26T03:04:29.810Z,944.31
2018-11-26T03:06:56.172Z,944.30
2018-11-26T03:09:22.494Z,944.30
2018-11-26T03:11:48.805Z,944.59
2018-11-26T03:14:15.115Z,944.43
2018-11-26T03:16:41.409Z,944.47
2018-11-26T03:19:07.734Z,944.43
2018-11-26T03:21:34.044Z,944.46
2018-11-26T03:24:00.372Z,944.35
2018-11-26T03:26:26.707Z,944.12
2018-11-26T03:28:53.016Z,944.35
2018-11-26T03:31:19.294Z,944.01
2018-11-26T03:33:45.589Z,944.08
2018-11-26T03:36:11.953Z,944.04
2018-11-26T03:38:38.327Z,944.05
2018-11-26T03:41:04.572Z,944.20
2018-11-26T03:43:30.948Z,944.27
2018-11-26T03:45:57.281Z,944.10
2018-11-26T03:48:23.595Z,943.85
2018-11-26T03:50:49.925Z,944.07
2018-11-26T03:53:16.260Z,944.00
2018-11-26T03:55:42.547Z,944.02
2018-11-26T03:58:08.873Z,943.60
2018-11-26T04:00:35.233Z,944.09
2018-11-26T04:03:01.502Z,943.88
2018-11-26T04:05:27.789Z,943.88
2018-11-26T04:07:54.132Z,943.80
2018-11-26T04:10:20.428Z,943.84
2018-11-26T04:12:46.712Z,943.70
2018-11-26T04:15:13.079Z,943.80
2018-11-26T04:17:39.464Z,943.56
2018-11-26T04:20:05.785Z,943.54
2018-11-26T04:22:32.093Z,943.64
2018-11-26T04:24:58.486Z,943.63
2018-11-26T04:27:24.781Z,943.06
2018-11-26T04:29:51.120Z,943.52
2018-11-26T04:32:17.439Z,943.41
2018-11-26T04:34:43.738Z,943.50
2018-11-26T04:37:10.024Z,943.33
2018-11-26T04:39:36.411Z,943.53
2018-11-26T04:42:02.705Z,943.60
2018-11-26T04:44:29.121Z,943.63
2018-11-26T04:46:55.384Z,943.72
2018-11-26T04:49:21.697Z,943.45
2018-11-26T04:51:48.023Z,943.46
2018-11-26T04:54:14.366Z,943.39
2018-11-26T04:56:40.665Z,943.35
2018-11-26T04:59:06.953Z,943.34
2018-11-26T05:01:33.234Z,943.41
2018-11-26T05:03:59.567Z,943.17
2018-11-26T05:06:25.895Z,943.51
2018-11-26T05:08:52.218Z,943.37
2018-11-26T05:11:18.559Z,942.91
2018-11-26T05:13:44.868Z,943.27
2018-11-26T05:16:11.207Z,943.22
2018-11-26T05:18:37.619Z,943.22
2018-11-26T05:21:03.922Z,943.27
2018-11-26T05:23:30.228Z,943.27
2018-11-26T05:25:56.569Z,943.27
2018-11-26T05:28:22.853Z,943.44
2018-11-26T05:30:49.184Z,943.32
2018-11-26T05:33:15.458Z,943.03
2018-11-26T05:35:41.788Z,943.14
2018-11-26T05:38:08.072Z,943.04
2018-11-26T05:40:34.381Z,943.05
2018-11-26T05:43:00.719Z,943.11
2018-11-26T05:45:27.003Z,943.28
2018-11-26T05:47:53.351Z,943.11
2018-11-26T05:50:19.675Z,943.11
2018-11-26T05:52:46.004Z,942.94
2018-11-26T05:55:12.329Z,942.98
2018-11-26T05:57:38.662Z,943.17
2018-11-26T06:00:06.732Z,943.01
2018-11-26T06:02:33.016Z,943.26
2018-11-26T06:04:59.311Z,943.22
2018-11-26T06:07:25.632Z,943.32
2018-11-26T06:09:51.950Z,943.17
2018-11-26T06:12:18.258Z,942.85
2018-11-26T06:14:44.615Z,942.83
2018-11-26T06:17:10.922Z,942.97
2018-11-26T06:19:37.232Z,942.97
2018-11-26T06:22:03.600Z,942.91
2018-11-26T06:24:29.926Z,943.06
2018-11-26T06:26:56.253Z,943.23
2018-11-26T06:29:22.708Z,943.28
2018-11-26T06:31:48.989Z,943.09
2018-11-26T06:34:15.350Z,943.01
2018-11-26T06:36:41.684Z,943.03
2018-11-26T06:39:08.074Z,942.78
2018-11-26T06:41:34.364Z,943.00
2018-11-26T06:44:00.691Z,942.94
2018-11-26T06:46:27.011Z,942.92
2018-11-26T06:48:53.319Z,942.92
2018-11-26T06:51:19.620Z,943.02
2018-11-26T06:53:45.930Z,942.87
2018-11-26T06:56:12.221Z,942.94
2018-11-26T06:58:38.585Z,942.96
2018-11-26T07:01:04.885Z,942.90
2018-11-26T07:03:31.235Z,942.92
2018-11-26T07:05:57.522Z,943.07
2018-11-26T07:08:23.818Z,942.99
2018-11-26T07:10:50.102Z,942.94
2018-11-26T07:13:16.405Z,942.88
2018-11-26T07:15:42.749Z,943.03
2018-11-26T07:18:09.035Z,943.00
2018-11-26T07:20:35.369Z,942.93
2018-11-26T07:23:01.650Z,943.13
2018-11-26T07:25:27.943Z,943.03
2018-11-26T07:27:54.265Z,942.96
2018-11-26T07:30:20.558Z,943.01
2018-11-26T07:32:46.860Z,942.93
2018-11-26T07:35:13.246Z,942.83
2018-11-26T07:37:39.539Z,942.74
2018-11-26T07:40:05.850Z,942.91
2018-11-26T07:42:32.171Z,942.76
2018-11-26T07:44:58.459Z,942.90
2018-11-26T07:47:24.811Z,942.95
2018-11-26T07:49:51.148Z,942.85
2018-11-26T07:52:17.481Z,943.00
2018-11-26T07:54:43.764Z,943.12
2018-11-26T07:57:10.110Z,943.04
2018-11-26T07:59:36.435Z,942.93
2018-11-26T08:02:02.740Z,942.95
2018-11-26T08:04:29.044Z,943.05
2018-11-26T08:06:55.346Z,942.90
2018-11-26T08:09:21.701Z,943.05
2018-11-26T08:11:47.984Z,943.23
2018-11-26T08:14:14.306Z,942.96
2018-11-26T08:16:40.671Z,943.07
2018-11-26T08:19:07.022Z,943.26
2018-11-26T08:21:33.345Z,943.31
2018-11-26T08:23:59.657Z,943.12
2018-11-26T08:26:25.947Z,943.07
2018-11-26T08:28:52.243Z,943.19
2018-11-26T08:31:18.560Z,943.00
2018-11-26T08:33:44.853Z,943.11
2018-11-26T08:36:11.160Z,943.12
2018-11-26T08:38:37.467Z,943.06
2018-11-26T08:41:03.754Z,943.24
2018-11-26T08:43:30.058Z,943.18
2018-11-26T08:45:56.383Z,943.07
2018-11-26T08:48:22.709Z,943.22
2018-11-26T08:50:49.016Z,943.17
2018-11-26T08:53:15.285Z,943.11
2018-11-26T08:55:41.592Z,943.00
2018-11-26T08:58:07.897Z,943.01
2018-11-26T09:00:34.196Z,942.93
2018-11-26T09:03:00.501Z,942.88
2018-11-26T09:05:26.820Z,942.78
2018-11-26T09:07:53.124Z,942.87
2018-11-26T09:10:19.445Z,942.64
2018-11-26T09:12:45.753Z,942.83
2018-11-26T09:15:12.085Z,942.76
2018-11-26T09:17:38.401Z,942.70
2018-11-26T09:20:04.692Z,942.80
2018-11-26T09:22:31.007Z,942.59
2018-11-26T09:24:57.317Z,942.59
2018-11-26T09:27:23.621Z,942.68
2018-11-26T09:29:49.910Z,942.65
2018-11-26T09:32:16.210Z,942.32
2018-11-26T09:34:42.543Z,942.43
2018-11-26T09:37:08.879Z,942.31
2018-11-26T09:39:35.189Z,942.26
2018-11-26T09:42:01.507Z,942.28
2018-11-26T09:44:27.811Z,942.23
2018-11-26T09:46:54.133Z,942.14
2018-11-26T09:49:20.433Z,942.16
2018-11-26T09:51:46.779Z,942.22
2018-11-26T09:54:13.074Z,942.06
2018-11-26T09:56:39.416Z,942.01
2018-11-26T09:59:05.758Z,942.20
2018-11-26T10:01:32.146Z,942.14
2018-11-26T10:03:58.454Z,942.11
2018-11-26T10:06:24.776Z,942.16
2018-11-26T10:08:51.088Z,942.05
2018-11-26T10:11:17.392Z,942.04
2018-11-26T10:13:43.709Z,941.86
2018-11-26T10:16:09.980Z,941.84
2018-11-26T10:18:36.307Z,941.69
2018-11-26T10:21:02.614Z,941.78
2018-11-26T10:23:28.917Z,941.76
2018-11-26T10:25:55.242Z,941.76
2018-11-26T10:28:21.544Z,941.70
2018-11-26T10:30:47.847Z,941.66
2018-11-26T10:33:14.891Z,941.58
2018-11-26T10:35:40.477Z,941.47
2018-11-26T10:38:06.767Z,941.43
2018-11-26T10:40:33.075Z,941.52
2018-11-26T10:42:59.380Z,941.43
2018-11-26T10:45:25.669Z,941.39
2018-11-26T10:47:51.985Z,941.50
2018-11-26T10:50:18.292Z,941.48
2018-11-26T10:52:44.619Z,941.24
2018-11-26T10:55:10.944Z,941.27
2018-11-26T10:57:37.264Z,941.35
2018-11-26T11:00:07.432Z,941.29
2018-11-26T11:02:33.722Z,941.34
2018-11-26T11:05:00.022Z,941.21
2018-11-26T11:07:26.350Z,941.22
2018-11-26T11:09:52.640Z,941.36
2018-11-26T11:12:18.979Z,941.22
2018-11-26T11:14:45.313Z,941.25
2018-11-26T11:17:11.598Z,941.14
2018-11-26T11:19:37.920Z,941.23
2018-11-26T11:22:04.229Z,941.25
2018-11-26T11:24:30.542Z,941.14
2018-11-26T11:26:56.874Z,941.10
2018-11-26T11:29:23.188Z,941.14
2018-11-26T11:31:49.519Z,941.00
2018-11-26T11:34:15.806Z,940.96
2018-11-26T11:36:42.137Z,940.90
2018-11-26T11:39:08.426Z,941.17
2018-11-26T11:41:34.846Z,941.05
2018-11-26T11:44:01.084Z,940.76
2018-11-26T11:46:27.400Z,940.70
2018-11-26T11:48:53.690Z,940.58
2018-11-26T11:51:20.015Z,940.57
2018-11-26T11:53:46.345Z,940.61
2018-11-26T11:56:12.665Z,940.73
2018-11-26T11:58:38.988Z,940.73
2018-11-26T12:01:05.294Z,940.65
2018-11-26T12:03:31.604Z,940.63
2018-11-26T12:05:57.893Z,940.56
2018-11-26T12:08:24.231Z,940.56
2018-11-26T12:10:50.590Z,940.50
2018-11-26T12:13:16.923Z,940.63
2018-11-26T12:15:43.283Z,940.50
2018-11-26T12:18:09.577Z,940.38
2018-11-26T12:20:35.877Z,940.39
2018-11-26T12:23:02.214Z,940.53
2018-11-26T12:25:28.529Z,940.53
2018-11-26T12:27:54.865Z,940.44
2018-11-26T12:30:21.191Z,940.23
2018-11-26T12:32:47.516Z,940.32
2018-11-26T12:35:13.866Z,940.34
2018-11-26T12:37:40.176Z,940.29
2018-11-26T12:40:06.533Z,940.23
2018-11-26T12:42:32.867Z,940.41
2018-11-26T12:44:59.169Z,940.37
2018-11-26T12:47:25.478Z,940.25
2018-11-26T12:49:51.769Z,940.30
2018-11-26T12:52:18.081Z,940.23
2018-11-26T12:54:44.409Z,940.03
2018-11-26T12:57:10.733Z,940.00
2018-11-26T12:59:37.099Z,939.88
2018-11-26T13:02:03.459Z,940.04
2018-11-26T13:04:29.772Z,940.00
2018-11-26T13:06:56.148Z,939.91
2018-11-26T13:09:22.462Z,940.07
2018-11-26T13:11:48.776Z,940.09
2018-11-26T13:14:15.112Z,939.90
2018-11-26T13:16:41.407Z,939.76
2018-11-26T13:19:07.728Z,939.79
2018-11-26T13:21:34.038Z,939.78
2018-11-26T13:24:00.344Z,939.84
2018-11-26T13:26:26.651Z,939.88
2018-11-26T13:28:52.982Z,939.87
2018-11-26T13:31:19.282Z,939.85
2018-11-26T13:33:45.645Z,939.96
2018-11-26T13:36:11.986Z,940.04
2018-11-26T13:38:38.311Z,940.07
2018-11-26T13:41:04.623Z,940.16
2018-11-26T13:43:30.960Z,940.28
2018-11-26T13:45:57.264Z,940.31
2018-11-26T13:48:23.609Z,940.23
2018-11-26T13:50:49.927Z,940.21
2018-11-26T13:53:16.232Z,940.17
2018-11-26T13:55:42.579Z,940.15
2018-11-26T13:58:08.896Z,940.17
2018-11-26T14:00:35.228Z,940.18
2018-11-26T14:03:01.537Z,940.15
2018-11-26T14:05:27.821Z,940.15
2018-11-26T14:07:54.136Z,940.23
2018-11-26T14:10:20.447Z,940.19
2018-11-26T14:12:46.756Z,940.22
2018-11-26T14:15:13.137Z,940.27
2018-11-26T14:17:39.462Z,940.22
2018-11-26T14:20:05.777Z,940.24
2018-11-26T14:22:32.089Z,940.18
2018-11-26T14:24:58.390Z,940.32
2018-11-26T14:27:24.716Z,940.41
2018-11-26T14:29:51.134Z,940.33
2018-11-26T14:32:17.487Z,940.47
2018-11-26T14:34:43.799Z,940.38
2018-11-26T14:37:10.121Z,940.43
2018-11-26T14:39:36.461Z,940.38
2018-11-26T14:42:02.765Z,940.43
2018-11-26T14:44:29.073Z,940.45
2018-11-26T14:46:55.346Z,940.36
2018-11-26T14:49:21.658Z,940.37
2018-11-26T14:51:47.978Z,940.38
2018-11-26T14:54:14.314Z,940.31
2018-11-26T14:56:40.640Z,940.42
2018-11-26T14:59:06.957Z,940.29
2018-11-26T15:01:33.287Z,940.27
2018-11-26T15:03:59.589Z,940.10
2018-11-26T15:06:25.932Z,940.13
2018-11-26T15:08:52.263Z,940.11
2018-11-26T15:11:18.602Z,940.20
2018-11-26T15:13:44.915Z,940.34
2018-11-26T15:16:11.237Z,940.29
2018-11-26T15:18:37.543Z,940.28
2018-11-26T15:21:04.005Z,940.28
2018-11-26T15:23:30.216Z,940.32
2018-11-26T15:25:56.533Z,940.34
2018-11-26T15:28:22.867Z,940.37
2018-11-26T15:30:49.159Z,940.37
2018-11-26T15:33:15.490Z,940.43
2018-11-26T15:35:41.830Z,940.46
2018-11-26T15:53:16.526Z,940.44
2018-11-26T15:55:42.835Z,940.40
2018-11-26T15:58:09.175Z,940.41
2018-11-26T16:00:35.511Z,940.39
2018-11-26T16:03:01.843Z,940.44
2018-11-26T16:05:28.154Z,940.45
2018-11-26T16:07:54.445Z,940.48
2018-11-26T16:10:20.748Z,940.59
2018-11-26T16:12:47.084Z,940.53
2018-11-26T16:15:13.422Z,940.63
2018-11-26T16:17:39.707Z,940.67
2018-11-26T16:20:06.076Z,940.66
2018-11-26T16:22:32.364Z,940.65
2018-11-26T16:24:58.743Z,940.62
2018-11-26T16:27:25.078Z,940.58
2018-11-26T16:29:51.467Z,940.67
2018-11-26T16:32:17.783Z,940.73
2018-11-26T16:34:44.080Z,940.67
2018-11-26T16:37:10.382Z,940.73
2018-11-26T16:39:36.691Z,940.76
2018-11-26T16:42:03.025Z,940.82
2018-11-26T16:44:29.336Z,940.73
2018-11-26T16:46:55.664Z,940.79
2018-11-26T16:49:21.954Z,940.85
2018-11-26T16:51:48.263Z,940.89
2018-11-26T16:54:14.590Z,940.90
2018-11-26T16:56:40.897Z,940.92
2018-11-26T16:59:07.253Z,941.02
2018-11-26T17:01:33.542Z,941.03
2018-11-26T17:03:59.844Z,941.02
2018-11-26T17:06:26.209Z,941.05
2018-11-26T17:08:52.564Z,941.04
2018-11-26T17:11:18.879Z,941.15
2018-11-26T17:13:45.173Z,941.07
2018-11-26T17:16:11.494Z,941.14
2018-11-26T17:18:37.789Z,941.17
2018-11-26T17:21:04.125Z,941.04
2018-11-26T17:23:30.439Z,941.11
2018-11-26T17:25:56.731Z,941.11
2018-11-26T17:28:23.057Z,941.07
2018-11-26T17:30:49.387Z,941.19
2018-11-26T17:33:15.692Z,941.06
2018-11-26T17:35:41.990Z,941.04
2018-11-26T17:38:08.322Z,941.10
2018-11-26T17:40:34.644Z,941.15
2018-11-26T17:43:00.938Z,941.15
2018-11-26T17:45:27.245Z,941.13
2018-11-26T17:47:53.598Z,941.16
2018-11-26T17:50:19.932Z,941.24
2018-11-26T17:52:46.290Z,941.20
2018-11-26T17:55:12.601Z,941.19
2018-11-26T17:57:38.959Z,941.26
2018-11-26T18:00:05.283Z,941.09
2018-11-26T18:02:31.604Z,941.28
2018-11-26T18:04:57.971Z,941.23
2018-11-26T18:07:24.271Z,941.35
2018-11-26T18:09:50.609Z,941.21
2018-11-26T18:12:16.944Z,941.28
2018-11-26T18:14:43.233Z,941.30
2018-11-26T18:17:09.600Z,941.24
2018-11-26T18:19:35.896Z,941.19
2018-11-26T18:22:03.456Z,941.24
2018-11-26T18:24:28.585Z,941.18
2018-11-26T18:26:54.929Z,941.26
2018-11-26T18:29:21.248Z,941.20
2018-11-26T18:31:47.570Z,941.16
2018-11-26T18:34:13.915Z,941.16
2018-11-26T18:36:40.218Z,941.14
2018-11-26T18:39:06.542Z,941.18
2018-11-26T18:41:32.860Z,941.16
2018-11-26T18:43:59.167Z,941.28
2018-11-26T18:46:25.491Z,941.31
2018-11-26T18:48:51.812Z,941.33
2018-11-26T18:51:18.119Z,941.34
2018-11-26T18:53:44.446Z,941.39
2018-11-26T18:56:10.749Z,941.36
2018-11-26T18:58:37.065Z,941.35
2018-11-26T19:01:03.387Z,941.35
2018-11-26T19:03:29.726Z,941.38
2018-11-26T19:05:56.027Z,941.36
2018-11-26T19:08:22.340Z,941.42
2018-11-26T19:10:48.664Z,941.42
2018-11-26T19:13:14.989Z,941.37
2018-11-26T19:15:41.290Z,941.36
2018-11-26T19:18:07.598Z,941.38
2018-11-26T19:20:33.921Z,941.39
2018-11-26T19:23:00.349Z,941.50
2018-11-26T19:25:26.667Z,941.45
2018-11-26T19:27:52.998Z,941.43
2018-11-26T19:30:23.081Z,941.53
2018-11-26T19:32:45.734Z,941.58
2018-11-26T19:35:12.054Z,941.59
2018-11-26T19:37:38.389Z,941.62
2018-11-26T19:40:04.679Z,941.57
2018-11-26T19:42:31.099Z,941.63
2018-11-26T19:44:57.384Z,941.57
2018-11-26T19:47:23.709Z,941.61
2018-11-26T19:49:50.026Z,941.59
2018-11-26T19:52:16.388Z,941.51
2018-11-26T19:54:42.676Z,941.59
2018-11-26T19:57:09.032Z,941.65
2018-11-26T19:59:36.591Z,941.66
2018-11-26T20:02:01.686Z,941.78
2018-11-26T20:04:28.003Z,941.51
2018-11-26T20:06:54.304Z,941.58
2018-11-26T20:09:21.149Z,941.62
2018-11-26T20:11:47.476Z,941.72
2018-11-26T20:14:21.319Z,941.82
2018-11-26T20:16:40.073Z,941.76
2018-11-26T20:19:06.368Z,941.74
2018-11-26T20:21:32.675Z,941.86
2018-11-26T20:23:58.999Z,941.68
2018-11-26T20:26:25.295Z,941.66
2018-11-26T20:28:56.810Z,941.63
2018-11-26T20:31:17.907Z,941.73
2018-11-26T20:33:44.202Z,941.85
2018-11-26T20:36:10.502Z,941.86
2018-11-26T20:38:36.808Z,941.91
2018-11-26T20:41:03.123Z,941.93
2018-11-26T20:43:29.478Z,941.83
2018-11-26T20:45:55.831Z,941.82
2018-11-26T20:48:22.104Z,941.91
2018-11-26T20:50:48.407Z,941.98
2018-11-26T20:53:14.737Z,941.83
2018-11-26T20:55:41.087Z,941.81
2018-11-26T20:58:07.382Z,941.73
2018-11-26T21:00:33.719Z,941.73
2018-11-26T21:03:00.003Z,941.83
2018-11-26T21:05:26.331Z,941.79
2018-11-26T21:07:52.657Z,941.69
2018-11-26T21:10:18.951Z,941.83
2018-11-26T21:12:45.255Z,941.76
2018-11-26T21:15:11.582Z,941.83
2018-11-26T21:17:37.944Z,941.85
2018-11-26T21:20:04.261Z,941.88
2018-11-26T21:22:30.640Z,941.86
2018-11-26T21:24:56.953Z,941.86
2018-11-26T21:27:23.292Z,941.82
2018-11-26T21:29:50.615Z,941.86
2018-11-26T21:32:16.026Z,942.03
2018-11-26T21:34:42.353Z,942.10
2018-11-26T21:37:08.656Z,942.11
2018-11-26T21:39:35.018Z,942.07
2018-11-26T21:42:01.336Z,942.07
2018-11-26T21:44:27.667Z,942.04
2018-11-26T21:46:54.069Z,941.94
2018-11-26T21:49:20.438Z,941.94
2018-11-26T21:51:46.744Z,942.01
2018-11-26T21:54:13.039Z,942.01
2018-11-26T21:56:39.360Z,942.00
2018-11-26T21:59:05.695Z,942.08
2018-11-26T22:01:32.065Z,942.15
2018-11-26T22:03:58.383Z,942.06
2018-11-26T22:06:24.705Z,942.20
2018-11-26T22:08:51.038Z,942.10
2018-11-26T22:11:17.332Z,942.14
2018-11-26T22:13:43.668Z,942.34
2018-11-26T22:16:10.278Z,942.26
2018-11-26T22:18:36.284Z,942.29
2018-11-26T22:21:02.606Z,942.46
2018-11-26T22:23:28.906Z,942.53
2018-11-26T22:25:55.218Z,942.49
2018-11-26T22:28:21.531Z,942.52
2018-11-26T22:30:47.911Z,942.58
2018-11-26T22:33:14.250Z,942.63
2018-11-26T22:35:40.567Z,942.63
2018-11-26T22:38:06.901Z,942.63
2018-11-26T22:40:33.210Z,942.71
2018-11-26T22:42:59.538Z,942.78
2018-11-26T22:45:25.863Z,942.80
2018-11-26T22:47:52.254Z,942.91
2018-11-26T22:50:18.568Z,942.98
2018-11-26T22:52:44.947Z,942.96
2018-11-26T22:55:11.256Z,943.00
2018-11-26T22:57:37.582Z,943.10
2018-11-26T23:00:07.032Z,943.17
2018-11-26T23:02:33.373Z,943.18
2018-11-26T23:04:59.677Z,943.17
2018-11-26T23:07:25.971Z,943.16
2018-11-26T23:09:52.375Z,943.19
2018-11-26T23:12:18.661Z,943.25
2018-11-26T23:14:44.993Z,943.36
2018-11-26T23:17:11.296Z,943.41
2018-11-26T23:19:37.655Z,943.46
2018-11-26T23:22:03.968Z,943.84
2018-11-26T23:24:30.266Z,943.75
2018-11-26T23:26:56.586Z,943.69
2018-11-26T23:29:22.884Z,943.79
2018-11-26T23:31:49.238Z,943.84
2018-11-26T23:34:15.571Z,943.87
2018-11-26T23:36:41.867Z,943.81
2018-11-26T23:39:08.197Z,943.82
2018-11-26T23:41:34.540Z,943.73
2018-11-26T23:44:00.867Z,943.72
2018-11-26T23:46:27.216Z,943.64
2018-11-26T23:48:53.540Z,943.60
2018-11-26T23:51:19.862Z,943.58
2018-11-26T23:53:46.155Z,943.63
2018-11-26T23:56:12.490Z,943.71
2018-11-26T23:58:38.824Z,943.62
